sensor_id;sensor_type;location;lat;lon;timestamp;temperature;humidity
41256;DHT22;26989;45.524;10.938;2023-07-29T00:01:34;20.80;99.90
41256;DHT22;26989;45.524;10.938;2023-07-29T00:04:02;20.70;99.90
41256;DHT22;26989;45.524;10.938;2023-07-29T00:06:28;20.70;99.90
41256;DHT22;26989;45.524;10.938;2023-07-29T00:08:55;20.70;99.90
41256;DHT22;26989;45.524;10.938;2023-07-29T00:11:22;20.60;99.90
41256;DHT22;26989;45.524;10.938;2023-07-29T00:13:49;20.60;99.90
41256;DHT22;26989;45.524;10.938;2023-07-29T00:16:17;20.50;99.90
41256;DHT22;26989;45.524;10.938;2023-07-29T00:18:44;20.30;99.90
41256;DHT22;26989;45.524;10.938;2023-07-29T00:21:11;20.30;99.90
41256;DHT22;26989;45.524;10.938;2023-07-29T00:23:38;20.30;99.90
41256;DHT22;26989;45.524;10.938;2023-07-29T00:26:05;20.30;99.90
41256;DHT22;26989;45.524;10.938;2023-07-29T00:28:32;20.30;99.90
41256;DHT22;26989;45.524;10.938;2023-07-29T00:30:59;20.30;99.90
41256;DHT22;26989;45.524;10.938;2023-07-29T00:33:26;20.30;99.90
41256;DHT22;26989;45.524;10.938;2023-07-29T00:35:53;20.30;99.90
41256;DHT22;26989;45.524;10.938;2023-07-29T00:38:20;20.30;99.90
41256;DHT22;26989;45.524;10.938;2023-07-29T00:40:47;20.20;99.90
41256;DHT22;26989;45.524;10.938;2023-07-29T00:43:14;20.10;99.90
41256;DHT22;26989;45.524;10.938;2023-07-29T00:45:43;20.10;99.90
41256;DHT22;26989;45.524;10.938;2023-07-29T00:48:10;20.20;99.90
41256;DHT22;26989;45.524;10.938;2023-07-29T00:50:38;20.10;99.90
41256;DHT22;26989;45.524;10.938;2023-07-29T00:53:05;20.20;99.90
41256;DHT22;26989;45.524;10.938;2023-07-29T00:55:32;20.20;99.90
41256;DHT22;26989;45.524;10.938;2023-07-29T00:57:59;20.20;99.90
41256;DHT22;26989;45.524;10.938;2023-07-29T01:00:26;20.20;99.90
41256;DHT22;26989;45.524;10.938;2023-07-29T01:02:54;20.20;99.90
41256;DHT22;26989;45.524;10.938;2023-07-29T01:05:22;20.10;99.90
41256;DHT22;26989;45.524;10.938;2023-07-29T01:07:59;20.10;99.90
41256;DHT22;26989;45.524;10.938;2023-07-29T01:11:38;20.00;99.90
41256;DHT22;26989;45.524;10.938;2023-07-29T01:13:50;20.00;99.90
41256;DHT22;26989;45.524;10.938;2023-07-29T01:16:42;20.10;99.90
41256;DHT22;26989;45.524;10.938;2023-07-29T01:20:07;20.10;99.90
41256;DHT22;26989;45.524;10.938;2023-07-29T01:22:07;20.10;99.90
41256;DHT22;26989;45.524;10.938;2023-07-29T01:24:35;20.10;99.90
41256;DHT22;26989;45.524;10.938;2023-07-29T01:27:02;20.10;99.90
41256;DHT22;26989;45.524;10.938;2023-07-29T01:29:31;20.00;99.90
41256;DHT22;26989;45.524;10.938;2023-07-29T01:32:04;20.00;99.90
41256;DHT22;26989;45.524;10.938;2023-07-29T01:34:41;20.00;99.90
41256;DHT22;26989;45.524;10.938;2023-07-29T01:37:15;20.00;99.90
41256;DHT22;26989;45.524;10.938;2023-07-29T01:39:45;20.00;99.90
41256;DHT22;26989;45.524;10.938;2023-07-29T01:42:13;19.90;99.90
41256;DHT22;26989;45.524;10.938;2023-07-29T01:44:40;20.00;99.90
41256;DHT22;26989;45.524;10.938;2023-07-29T01:47:10;20.00;99.90
41256;DHT22;26989;45.524;10.938;2023-07-29T01:49:37;19.90;99.90
41256;DHT22;26989;45.524;10.938;2023-07-29T01:52:04;20.00;99.90
41256;DHT22;26989;45.524;10.938;2023-07-29T01:54:31;19.90;99.90
41256;DHT22;26989;45.524;10.938;2023-07-29T01:56:58;19.90;99.90
41256;DHT22;26989;45.524;10.938;2023-07-29T01:59:25;19.90;99.90
41256;DHT22;26989;45.524;10.938;2023-07-29T02:01:52;19.90;99.90
41256;DHT22;26989;45.524;10.938;2023-07-29T02:04:19;19.90;99.90
41256;DHT22;26989;45.524;10.938;2023-07-29T02:06:46;19.90;99.90
41256;DHT22;26989;45.524;10.938;2023-07-29T02:09:12;19.80;99.90
41256;DHT22;26989;45.524;10.938;2023-07-29T02:11:39;19.80;99.90
41256;DHT22;26989;45.524;10.938;2023-07-29T02:14:06;19.70;99.90
41256;DHT22;26989;45.524;10.938;2023-07-29T02:16:33;19.60;99.90
41256;DHT22;26989;45.524;10.938;2023-07-29T02:19:01;19.70;99.90
41256;DHT22;26989;45.524;10.938;2023-07-29T02:21:28;19.70;99.90
41256;DHT22;26989;45.524;10.938;2023-07-29T02:23:55;19.70;99.90
41256;DHT22;26989;45.524;10.938;2023-07-29T02:26:22;19.60;99.90
41256;DHT22;26989;45.524;10.938;2023-07-29T02:28:49;19.50;99.90
41256;DHT22;26989;45.524;10.938;2023-07-29T02:31:21;19.50;99.90
41256;DHT22;26989;45.524;10.938;2023-07-29T02:33:48;19.50;99.90
41256;DHT22;26989;45.524;10.938;2023-07-29T02:36:16;19.50;99.90
41256;DHT22;26989;45.524;10.938;2023-07-29T02:38:43;19.60;99.90
41256;DHT22;26989;45.524;10.938;2023-07-29T02:41:10;19.60;99.90
41256;DHT22;26989;45.524;10.938;2023-07-29T02:43:39;19.60;99.90
41256;DHT22;26989;45.524;10.938;2023-07-29T02:46:08;19.50;99.90
41256;DHT22;26989;45.524;10.938;2023-07-29T02:48:35;19.50;99.90
41256;DHT22;26989;45.524;10.938;2023-07-29T02:51:02;19.40;99.90
41256;DHT22;26989;45.524;10.938;2023-07-29T02:53:29;19.50;99.90
41256;DHT22;26989;45.524;10.938;2023-07-29T02:55:56;19.50;99.90
41256;DHT22;26989;45.524;10.938;2023-07-29T02:58:23;19.50;99.90
41256;DHT22;26989;45.524;10.938;2023-07-29T03:00:49;19.50;99.90
41256;DHT22;26989;45.524;10.938;2023-07-29T03:03:17;19.60;99.90
41256;DHT22;26989;45.524;10.938;2023-07-29T03:05:44;19.70;99.90
41256;DHT22;26989;45.524;10.938;2023-07-29T03:08:11;19.60;99.90
41256;DHT22;26989;45.524;10.938;2023-07-29T03:10:37;19.60;99.90
41256;DHT22;26989;45.524;10.938;2023-07-29T03:13:04;19.70;99.90
41256;DHT22;26989;45.524;10.938;2023-07-29T03:15:31;19.70;99.90
41256;DHT22;26989;45.524;10.938;2023-07-29T03:18:00;19.70;99.90
41256;DHT22;26989;45.524;10.938;2023-07-29T03:20:27;19.70;99.90
41256;DHT22;26989;45.524;10.938;2023-07-29T03:22:54;19.80;99.90
41256;DHT22;26989;45.524;10.938;2023-07-29T03:25:21;19.80;99.90
41256;DHT22;26989;45.524;10.938;2023-07-29T03:27:48;19.60;99.90
41256;DHT22;26989;45.524;10.938;2023-07-29T03:30:19;19.60;99.90
41256;DHT22;26989;45.524;10.938;2023-07-29T03:32:48;19.50;99.90
41256;DHT22;26989;45.524;10.938;2023-07-29T03:35:15;19.60;99.90
41256;DHT22;26989;45.524;10.938;2023-07-29T03:37:42;19.50;99.90
41256;DHT22;26989;45.524;10.938;2023-07-29T03:40:10;19.50;99.90
41256;DHT22;26989;45.524;10.938;2023-07-29T03:42:37;19.50;99.90
41256;DHT22;26989;45.524;10.938;2023-07-29T03:45:04;19.50;99.90
41256;DHT22;26989;45.524;10.938;2023-07-29T03:47:31;19.40;99.90
41256;DHT22;26989;45.524;10.938;2023-07-29T03:49:58;19.50;99.90
41256;DHT22;26989;45.524;10.938;2023-07-29T03:52:25;19.60;99.90
41256;DHT22;26989;45.524;10.938;2023-07-29T03:54:52;19.70;99.90
41256;DHT22;26989;45.524;10.938;2023-07-29T03:57:18;19.70;99.90
41256;DHT22;26989;45.524;10.938;2023-07-29T03:59:45;19.70;99.90
41256;DHT22;26989;45.524;10.938;2023-07-29T04:02:12;19.80;99.90
41256;DHT22;26989;45.524;10.938;2023-07-29T04:04:39;19.80;99.90
41256;DHT22;26989;45.524;10.938;2023-07-29T04:07:08;19.80;99.90
41256;DHT22;26989;45.524;10.938;2023-07-29T04:09:35;19.70;99.90
41256;DHT22;26989;45.524;10.938;2023-07-29T04:12:02;19.70;99.90
41256;DHT22;26989;45.524;10.938;2023-07-29T04:14:29;19.70;99.90
41256;DHT22;26989;45.524;10.938;2023-07-29T04:16:57;19.70;99.90
41256;DHT22;26989;45.524;10.938;2023-07-29T04:19:24;19.70;99.90
41256;DHT22;26989;45.524;10.938;2023-07-29T04:21:51;19.60;99.90
41256;DHT22;26989;45.524;10.938;2023-07-29T04:24:18;19.60;99.90
41256;DHT22;26989;45.524;10.938;2023-07-29T04:26:47;19.60;99.90
41256;DHT22;26989;45.524;10.938;2023-07-29T04:29:13;19.50;99.90
41256;DHT22;26989;45.524;10.938;2023-07-29T04:31:40;19.60;99.90
41256;DHT22;26989;45.524;10.938;2023-07-29T04:34:08;19.70;99.90
41256;DHT22;26989;45.524;10.938;2023-07-29T04:36:35;19.70;99.90
41256;DHT22;26989;45.524;10.938;2023-07-29T04:39:03;19.80;99.90
41256;DHT22;26989;45.524;10.938;2023-07-29T04:41:30;19.80;99.90
41256;DHT22;26989;45.524;10.938;2023-07-29T04:43:56;19.70;99.90
41256;DHT22;26989;45.524;10.938;2023-07-29T04:46:23;19.80;99.90
41256;DHT22;26989;45.524;10.938;2023-07-29T04:48:50;19.80;99.90
41256;DHT22;26989;45.524;10.938;2023-07-29T04:51:17;19.80;99.90
41256;DHT22;26989;45.524;10.938;2023-07-29T04:53:44;19.90;99.90
41256;DHT22;26989;45.524;10.938;2023-07-29T04:56:11;20.00;99.90
41256;DHT22;26989;45.524;10.938;2023-07-29T04:58:38;20.30;99.90
41256;DHT22;26989;45.524;10.938;2023-07-29T05:01:05;21.50;99.90
41256;DHT22;26989;45.524;10.938;2023-07-29T05:03:32;22.10;99.90
41256;DHT22;26989;45.524;10.938;2023-07-29T05:05:59;22.90;99.90
41256;DHT22;26989;45.524;10.938;2023-07-29T05:08:27;23.10;99.90
41256;DHT22;26989;45.524;10.938;2023-07-29T05:10:54;23.60;99.90
41256;DHT22;26989;45.524;10.938;2023-07-29T05:13:21;24.10;99.90
41256;DHT22;26989;45.524;10.938;2023-07-29T05:15:49;24.70;99.90
41256;DHT22;26989;45.524;10.938;2023-07-29T05:18:16;25.10;99.90
41256;DHT22;26989;45.524;10.938;2023-07-29T05:20:43;25.80;99.90
41256;DHT22;26989;45.524;10.938;2023-07-29T05:23:10;25.40;99.90
41256;DHT22;26989;45.524;10.938;2023-07-29T05:25:37;23.40;99.90
41256;DHT22;26989;45.524;10.938;2023-07-29T05:28:04;22.00;99.90
41256;DHT22;26989;45.524;10.938;2023-07-29T05:30:32;22.30;99.90
41256;DHT22;26989;45.524;10.938;2023-07-29T05:33:00;22.70;99.90
41256;DHT22;26989;45.524;10.938;2023-07-29T05:35:27;24.10;99.90
41256;DHT22;26989;45.524;10.938;2023-07-29T05:37:54;24.80;99.90
41256;DHT22;26989;45.524;10.938;2023-07-29T05:40:21;26.60;99.90
41256;DHT22;26989;45.524;10.938;2023-07-29T05:42:48;26.60;99.90
41256;DHT22;26989;45.524;10.938;2023-07-29T05:45:15;27.90;99.90
41256;DHT22;26989;45.524;10.938;2023-07-29T05:47:42;28.20;99.90
41256;DHT22;26989;45.524;10.938;2023-07-29T05:50:09;27.90;99.50
41256;DHT22;26989;45.524;10.938;2023-07-29T05:52:37;29.50;98.60
41256;DHT22;26989;45.524;10.938;2023-07-29T05:55:04;31.20;97.00
41256;DHT22;26989;45.524;10.938;2023-07-29T05:57:31;30.20;97.60
41256;DHT22;26989;45.524;10.938;2023-07-29T05:59:58;28.60;98.70
41256;DHT22;26989;45.524;10.938;2023-07-29T06:02:24;28.40;99.50
41256;DHT22;26989;45.524;10.938;2023-07-29T06:04:51;28.00;98.80
41256;DHT22;26989;45.524;10.938;2023-07-29T06:07:18;29.80;97.90
41256;DHT22;26989;45.524;10.938;2023-07-29T06:09:46;29.80;97.70
41256;DHT22;26989;45.524;10.938;2023-07-29T06:12:12;29.90;98.20
41256;DHT22;26989;45.524;10.938;2023-07-29T06:14:40;30.10;97.90
41256;DHT22;26989;45.524;10.938;2023-07-29T06:17:06;32.00;96.70
41256;DHT22;26989;45.524;10.938;2023-07-29T06:19:34;34.60;94.40
41256;DHT22;26989;45.524;10.938;2023-07-29T06:22:00;35.80;92.90
41256;DHT22;26989;45.524;10.938;2023-07-29T06:24:28;36.00;92.50
41256;DHT22;26989;45.524;10.938;2023-07-29T06:26:55;36.10;91.70
41256;DHT22;26989;45.524;10.938;2023-07-29T06:29:22;35.30;92.10
41256;DHT22;26989;45.524;10.938;2023-07-29T06:31:49;35.90;91.50
41256;DHT22;26989;45.524;10.938;2023-07-29T06:34:18;35.70;91.60
41256;DHT22;26989;45.524;10.938;2023-07-29T06:36:45;34.00;91.90
41256;DHT22;26989;45.524;10.938;2023-07-29T06:39:11;34.30;92.20
41256;DHT22;26989;45.524;10.938;2023-07-29T06:41:38;33.00;92.20
41256;DHT22;26989;45.524;10.938;2023-07-29T06:44:05;33.10;93.20
41256;DHT22;26989;45.524;10.938;2023-07-29T06:46:32;32.50;93.70
41256;DHT22;26989;45.524;10.938;2023-07-29T06:48:59;33.00;94.10
41256;DHT22;26989;45.524;10.938;2023-07-29T06:51:26;32.50;93.80
41256;DHT22;26989;45.524;10.938;2023-07-29T06:53:53;32.20;94.30
41256;DHT22;26989;45.524;10.938;2023-07-29T06:56:20;33.10;93.90
41256;DHT22;26989;45.524;10.938;2023-07-29T06:58:47;35.10;93.30
41256;DHT22;26989;45.524;10.938;2023-07-29T07:01:14;32.90;93.50
41256;DHT22;26989;45.524;10.938;2023-07-29T07:03:41;32.20;94.10
41256;DHT22;26989;45.524;10.938;2023-07-29T07:06:08;34.30;93.00
41256;DHT22;26989;45.524;10.938;2023-07-29T07:08:34;30.40;94.40
41256;DHT22;26989;45.524;10.938;2023-07-29T07:11:01;28.10;97.00
41256;DHT22;26989;45.524;10.938;2023-07-29T07:13:28;27.80;98.00
41256;DHT22;26989;45.524;10.938;2023-07-29T07:15:56;27.00;98.60
41256;DHT22;26989;45.524;10.938;2023-07-29T07:18:23;27.20;98.70
41256;DHT22;26989;45.524;10.938;2023-07-29T07:20:51;27.40;98.40
41256;DHT22;26989;45.524;10.938;2023-07-29T07:23:18;27.40;98.70
41256;DHT22;26989;45.524;10.938;2023-07-29T07:25:45;27.10;99.10
41256;DHT22;26989;45.524;10.938;2023-07-29T07:28:12;27.20;99.40
41256;DHT22;26989;45.524;10.938;2023-07-29T07:30:40;27.30;99.30
41256;DHT22;26989;45.524;10.938;2023-07-29T07:33:10;27.60;99.50
41256;DHT22;26989;45.524;10.938;2023-07-29T07:35:37;27.60;99.00
41256;DHT22;26989;45.524;10.938;2023-07-29T07:38:04;27.60;99.30
41256;DHT22;26989;45.524;10.938;2023-07-29T07:40:34;27.70;98.90
41256;DHT22;26989;45.524;10.938;2023-07-29T07:43:01;27.80;98.60
41256;DHT22;26989;45.524;10.938;2023-07-29T07:45:27;27.90;98.10
41256;DHT22;26989;45.524;10.938;2023-07-29T07:47:56;27.70;98.90
41256;DHT22;26989;45.524;10.938;2023-07-29T07:50:23;27.70;98.10
41256;DHT22;26989;45.524;10.938;2023-07-29T07:52:50;27.70;98.80
41256;DHT22;26989;45.524;10.938;2023-07-29T07:55:17;27.80;98.40
41256;DHT22;26989;45.524;10.938;2023-07-29T07:57:44;27.90;98.40
41256;DHT22;26989;45.524;10.938;2023-07-29T08:00:13;27.70;98.70
41256;DHT22;26989;45.524;10.938;2023-07-29T08:02:43;27.70;98.40
41256;DHT22;26989;45.524;10.938;2023-07-29T08:05:10;27.70;98.70
41256;DHT22;26989;45.524;10.938;2023-07-29T08:07:40;27.80;98.30
41256;DHT22;26989;45.524;10.938;2023-07-29T08:10:07;27.70;99.30
41256;DHT22;26989;45.524;10.938;2023-07-29T08:12:34;27.90;98.80
41256;DHT22;26989;45.524;10.938;2023-07-29T08:15:01;27.90;98.20
41256;DHT22;26989;45.524;10.938;2023-07-29T08:17:29;28.00;97.80
41256;DHT22;26989;45.524;10.938;2023-07-29T08:19:56;28.20;97.90
41256;DHT22;26989;45.524;10.938;2023-07-29T08:22:23;28.10;98.30
41256;DHT22;26989;45.524;10.938;2023-07-29T08:24:50;28.30;97.90
41256;DHT22;26989;45.524;10.938;2023-07-29T08:27:17;28.20;98.10
41256;DHT22;26989;45.524;10.938;2023-07-29T08:29:44;28.10;98.50
41256;DHT22;26989;45.524;10.938;2023-07-29T08:32:11;27.90;98.10
41256;DHT22;26989;45.524;10.938;2023-07-29T08:34:37;28.10;98.60
41256;DHT22;26989;45.524;10.938;2023-07-29T08:37:05;28.00;98.40
41256;DHT22;26989;45.524;10.938;2023-07-29T08:39:32;28.10;98.00
41256;DHT22;26989;45.524;10.938;2023-07-29T08:42:04;28.20;98.40
41256;DHT22;26989;45.524;10.938;2023-07-29T08:44:37;28.10;98.00
41256;DHT22;26989;45.524;10.938;2023-07-29T08:47:07;28.10;97.70
41256;DHT22;26989;45.524;10.938;2023-07-29T08:49:34;27.90;98.80
41256;DHT22;26989;45.524;10.938;2023-07-29T08:52:02;27.60;98.20
41256;DHT22;26989;45.524;10.938;2023-07-29T08:54:30;28.00;98.30
41256;DHT22;26989;45.524;10.938;2023-07-29T08:56:58;28.10;98.40
41256;DHT22;26989;45.524;10.938;2023-07-29T08:59:26;28.20;97.40
41256;DHT22;26989;45.524;10.938;2023-07-29T09:01:54;28.10;97.40
41256;DHT22;26989;45.524;10.938;2023-07-29T09:04:24;28.00;97.90
41256;DHT22;26989;45.524;10.938;2023-07-29T09:06:51;28.10;98.40
41256;DHT22;26989;45.524;10.938;2023-07-29T09:09:22;28.20;98.00
41256;DHT22;26989;45.524;10.938;2023-07-29T09:11:49;28.30;97.90
41256;DHT22;26989;45.524;10.938;2023-07-29T09:14:16;28.40;97.80
41256;DHT22;26989;45.524;10.938;2023-07-29T09:16:43;28.50;97.50
41256;DHT22;26989;45.524;10.938;2023-07-29T09:19:10;28.30;97.90
41256;DHT22;26989;45.524;10.938;2023-07-29T09:21:40;28.40;97.40
41256;DHT22;26989;45.524;10.938;2023-07-29T09:24:08;28.20;97.90
41256;DHT22;26989;45.524;10.938;2023-07-29T09:26:35;27.80;97.90
41256;DHT22;26989;45.524;10.938;2023-07-29T09:29:03;27.80;98.90
41256;DHT22;26989;45.524;10.938;2023-07-29T09:31:30;27.90;98.40
41256;DHT22;26989;45.524;10.938;2023-07-29T09:34:01;28.00;99.00
41256;DHT22;26989;45.524;10.938;2023-07-29T09:36:33;28.00;99.00
41256;DHT22;26989;45.524;10.938;2023-07-29T09:39:01;28.20;99.00
41256;DHT22;26989;45.524;10.938;2023-07-29T09:41:29;28.00;98.30
41256;DHT22;26989;45.524;10.938;2023-07-29T09:44:01;28.10;97.30
41256;DHT22;26989;45.524;10.938;2023-07-29T09:46:36;28.10;97.90
41256;DHT22;26989;45.524;10.938;2023-07-29T09:49:06;28.10;97.40
41256;DHT22;26989;45.524;10.938;2023-07-29T09:51:39;28.10;98.10
41256;DHT22;26989;45.524;10.938;2023-07-29T09:54:07;28.30;98.90
41256;DHT22;26989;45.524;10.938;2023-07-29T09:56:39;28.40;99.00
41256;DHT22;26989;45.524;10.938;2023-07-29T09:59:08;28.40;99.20
41256;DHT22;26989;45.524;10.938;2023-07-29T10:01:35;28.30;98.50
41256;DHT22;26989;45.524;10.938;2023-07-29T10:04:04;28.20;98.40
41256;DHT22;26989;45.524;10.938;2023-07-29T10:06:34;28.20;99.00
41256;DHT22;26989;45.524;10.938;2023-07-29T10:09:02;28.20;98.60
41256;DHT22;26989;45.524;10.938;2023-07-29T10:11:30;28.20;99.00
41256;DHT22;26989;45.524;10.938;2023-07-29T10:13:57;28.20;99.00
41256;DHT22;26989;45.524;10.938;2023-07-29T10:16:36;28.30;98.70
41256;DHT22;26989;45.524;10.938;2023-07-29T10:19:04;28.50;98.20
41256;DHT22;26989;45.524;10.938;2023-07-29T10:21:31;28.70;98.30
41256;DHT22;26989;45.524;10.938;2023-07-29T10:24:01;28.10;98.60
41256;DHT22;26989;45.524;10.938;2023-07-29T10:26:31;27.90;99.10
41256;DHT22;26989;45.524;10.938;2023-07-29T10:29:04;28.00;98.80
41256;DHT22;26989;45.524;10.938;2023-07-29T10:31:35;28.00;99.40
41256;DHT22;26989;45.524;10.938;2023-07-29T10:34:04;28.40;98.60
41256;DHT22;26989;45.524;10.938;2023-07-29T10:36:31;28.50;98.90
41256;DHT22;26989;45.524;10.938;2023-07-29T10:38:58;28.60;98.20
41256;DHT22;26989;45.524;10.938;2023-07-29T10:42:01;28.80;98.10
41256;DHT22;26989;45.524;10.938;2023-07-29T10:47:19;28.60;97.80
41256;DHT22;26989;45.524;10.938;2023-07-29T10:49:50;28.70;98.30
41256;DHT22;26989;45.524;10.938;2023-07-29T10:55:03;28.60;98.30
41256;DHT22;26989;45.524;10.938;2023-07-29T10:57:35;28.60;98.30
41256;DHT22;26989;45.524;10.938;2023-07-29T11:00:03;28.50;98.40
41256;DHT22;26989;45.524;10.938;2023-07-29T11:02:36;28.50;98.60
41256;DHT22;26989;45.524;10.938;2023-07-29T11:05:17;28.40;98.40
41256;DHT22;26989;45.524;10.938;2023-07-29T11:10:13;28.90;98.60
41256;DHT22;26989;45.524;10.938;2023-07-29T11:12:48;29.10;98.20
41256;DHT22;26989;45.524;10.938;2023-07-29T11:15:25;29.20;98.20
41256;DHT22;26989;45.524;10.938;2023-07-29T11:17:57;29.10;98.20
41256;DHT22;26989;45.524;10.938;2023-07-29T11:20:31;29.00;97.60
41256;DHT22;26989;45.524;10.938;2023-07-29T11:23:00;28.90;98.70
41256;DHT22;26989;45.524;10.938;2023-07-29T11:25:29;29.00;98.10
41256;DHT22;26989;45.524;10.938;2023-07-29T11:27:58;29.30;97.80
41256;DHT22;26989;45.524;10.938;2023-07-29T11:30:27;29.60;97.70
41256;DHT22;26989;45.524;10.938;2023-07-29T11:32:57;29.70;97.50
41256;DHT22;26989;45.524;10.938;2023-07-29T11:35:24;29.40;97.70
41256;DHT22;26989;45.524;10.938;2023-07-29T11:37:53;29.50;98.00
41256;DHT22;26989;45.524;10.938;2023-07-29T11:40:22;29.80;97.20
41256;DHT22;26989;45.524;10.938;2023-07-29T11:42:51;30.00;97.10
41256;DHT22;26989;45.524;10.938;2023-07-29T11:45:19;30.10;97.20
41256;DHT22;26989;45.524;10.938;2023-07-29T11:47:46;30.10;96.70
41256;DHT22;26989;45.524;10.938;2023-07-29T11:50:14;29.70;97.00
41256;DHT22;26989;45.524;10.938;2023-07-29T11:52:43;29.60;97.20
41256;DHT22;26989;45.524;10.938;2023-07-29T11:55:12;29.30;98.00
41256;DHT22;26989;45.524;10.938;2023-07-29T11:57:39;29.40;97.60
41256;DHT22;26989;45.524;10.938;2023-07-29T12:00:08;29.60;97.80
41256;DHT22;26989;45.524;10.938;2023-07-29T12:02:38;29.60;97.70
41256;DHT22;26989;45.524;10.938;2023-07-29T12:05:07;29.60;98.00
41256;DHT22;26989;45.524;10.938;2023-07-29T12:07:35;29.80;97.50
41256;DHT22;26989;45.524;10.938;2023-07-29T12:10:04;29.90;97.40
41256;DHT22;26989;45.524;10.938;2023-07-29T12:12:31;29.60;95.70
41256;DHT22;26989;45.524;10.938;2023-07-29T12:14:58;29.30;96.10
41256;DHT22;26989;45.524;10.938;2023-07-29T12:17:25;29.10;95.70
41256;DHT22;26989;45.524;10.938;2023-07-29T12:19:54;28.90;96.30
41256;DHT22;26989;45.524;10.938;2023-07-29T12:22:21;29.00;96.80
41256;DHT22;26989;45.524;10.938;2023-07-29T12:24:51;29.40;96.40
41256;DHT22;26989;45.524;10.938;2023-07-29T12:27:21;29.70;96.20
41256;DHT22;26989;45.524;10.938;2023-07-29T12:29:51;29.40;95.50
41256;DHT22;26989;45.524;10.938;2023-07-29T12:32:18;29.20;95.90
41256;DHT22;26989;45.524;10.938;2023-07-29T12:34:45;29.30;96.80
41256;DHT22;26989;45.524;10.938;2023-07-29T12:37:12;29.70;96.50
41256;DHT22;26989;45.524;10.938;2023-07-29T12:39:42;30.00;96.90
41256;DHT22;26989;45.524;10.938;2023-07-29T12:42:09;30.30;96.90
41256;DHT22;26989;45.524;10.938;2023-07-29T12:44:37;30.40;95.90
41256;DHT22;26989;45.524;10.938;2023-07-29T12:47:06;30.50;95.80
41256;DHT22;26989;45.524;10.938;2023-07-29T12:49:33;30.70;96.00
41256;DHT22;26989;45.524;10.938;2023-07-29T12:52:00;30.50;95.90
41256;DHT22;26989;45.524;10.938;2023-07-29T12:54:27;30.60;95.50
41256;DHT22;26989;45.524;10.938;2023-07-29T12:56:54;30.40;95.90
41256;DHT22;26989;45.524;10.938;2023-07-29T12:59:21;30.40;96.20
41256;DHT22;26989;45.524;10.938;2023-07-29T13:01:47;30.30;96.10
41256;DHT22;26989;45.524;10.938;2023-07-29T13:04:15;30.20;96.60
41256;DHT22;26989;45.524;10.938;2023-07-29T13:06:42;30.40;96.10
41256;DHT22;26989;45.524;10.938;2023-07-29T13:09:08;30.60;95.90
41256;DHT22;26989;45.524;10.938;2023-07-29T13:11:35;30.70;96.20
41256;DHT22;26989;45.524;10.938;2023-07-29T13:14:02;30.70;96.40
41256;DHT22;26989;45.524;10.938;2023-07-29T13:16:29;30.80;96.30
41256;DHT22;26989;45.524;10.938;2023-07-29T13:18:57;30.90;95.70
41256;DHT22;26989;45.524;10.938;2023-07-29T13:21:24;30.70;95.10
41256;DHT22;26989;45.524;10.938;2023-07-29T13:23:51;30.40;95.50
41256;DHT22;26989;45.524;10.938;2023-07-29T13:26:18;30.20;96.30
41256;DHT22;26989;45.524;10.938;2023-07-29T13:28:45;30.20;96.80
41256;DHT22;26989;45.524;10.938;2023-07-29T13:31:12;30.30;96.90
41256;DHT22;26989;45.524;10.938;2023-07-29T13:33:39;30.40;96.80
41256;DHT22;26989;45.524;10.938;2023-07-29T13:36:07;30.40;97.10
41256;DHT22;26989;45.524;10.938;2023-07-29T13:38:35;30.80;97.00
41256;DHT22;26989;45.524;10.938;2023-07-29T13:41:02;30.90;96.50
41256;DHT22;26989;45.524;10.938;2023-07-29T13:43:29;31.20;95.60
41256;DHT22;26989;45.524;10.938;2023-07-29T13:45:56;30.90;96.20
41256;DHT22;26989;45.524;10.938;2023-07-29T13:48:23;30.80;96.60
41256;DHT22;26989;45.524;10.938;2023-07-29T13:50:50;30.70;95.90
41256;DHT22;26989;45.524;10.938;2023-07-29T13:53:18;30.70;95.90
41256;DHT22;26989;45.524;10.938;2023-07-29T13:55:45;30.60;96.10
41256;DHT22;26989;45.524;10.938;2023-07-29T13:58:12;30.60;96.00
41256;DHT22;26989;45.524;10.938;2023-07-29T14:00:38;30.40;96.40
41256;DHT22;26989;45.524;10.938;2023-07-29T14:03:05;30.60;97.00
41256;DHT22;26989;45.524;10.938;2023-07-29T14:05:32;30.40;96.00
41256;DHT22;26989;45.524;10.938;2023-07-29T14:07:59;30.60;95.60
41256;DHT22;26989;45.524;10.938;2023-07-29T14:10:26;30.40;96.30
41256;DHT22;26989;45.524;10.938;2023-07-29T14:12:53;30.40;96.40
41256;DHT22;26989;45.524;10.938;2023-07-29T14:15:21;30.70;96.00
41256;DHT22;26989;45.524;10.938;2023-07-29T14:17:48;31.10;95.50
41256;DHT22;26989;45.524;10.938;2023-07-29T14:20:15;31.40;95.30
41256;DHT22;26989;45.524;10.938;2023-07-29T14:22:42;30.90;95.00
41256;DHT22;26989;45.524;10.938;2023-07-29T14:25:09;31.20;94.70
41256;DHT22;26989;45.524;10.938;2023-07-29T14:27:35;31.50;94.70
41256;DHT22;26989;45.524;10.938;2023-07-29T14:30:04;31.40;95.10
41256;DHT22;26989;45.524;10.938;2023-07-29T14:32:31;31.60;95.90
41256;DHT22;26989;45.524;10.938;2023-07-29T14:34:58;31.30;94.90
41256;DHT22;26989;45.524;10.938;2023-07-29T14:37:25;30.80;96.00
41256;DHT22;26989;45.524;10.938;2023-07-29T14:39:52;30.40;96.00
41256;DHT22;26989;45.524;10.938;2023-07-29T14:42:20;30.20;96.20
41256;DHT22;26989;45.524;10.938;2023-07-29T14:44:47;30.80;96.00
41256;DHT22;26989;45.524;10.938;2023-07-29T14:47:14;31.00;95.90
41256;DHT22;26989;45.524;10.938;2023-07-29T14:49:41;31.20;94.90
41256;DHT22;26989;45.524;10.938;2023-07-29T14:52:08;31.30;95.00
41256;DHT22;26989;45.524;10.938;2023-07-29T14:54:34;31.30;94.90
41256;DHT22;26989;45.524;10.938;2023-07-29T14:57:01;31.00;95.60
41256;DHT22;26989;45.524;10.938;2023-07-29T14:59:29;31.00;95.70
41256;DHT22;26989;45.524;10.938;2023-07-29T15:01:55;31.30;95.40
41256;DHT22;26989;45.524;10.938;2023-07-29T15:04:22;31.40;95.30
41256;DHT22;26989;45.524;10.938;2023-07-29T15:06:49;31.70;94.70
41256;DHT22;26989;45.524;10.938;2023-07-29T15:09:17;30.90;95.20
41256;DHT22;26989;45.524;10.938;2023-07-29T15:11:44;31.10;95.10
41256;DHT22;26989;45.524;10.938;2023-07-29T15:14:11;31.10;94.70
41256;DHT22;26989;45.524;10.938;2023-07-29T15:16:38;31.40;94.70
41256;DHT22;26989;45.524;10.938;2023-07-29T15:19:06;31.60;94.50
41256;DHT22;26989;45.524;10.938;2023-07-29T15:21:33;31.70;95.00
41256;DHT22;26989;45.524;10.938;2023-07-29T15:24:01;31.50;94.80
41256;DHT22;26989;45.524;10.938;2023-07-29T15:26:27;31.40;95.00
41256;DHT22;26989;45.524;10.938;2023-07-29T15:28:54;31.10;95.40